Terminal Aerodrome Forecast
Issued by NWS Brownsville, TX

Home | Current Version | Previous Version | Text Only | Print | Product List | Glossary On
Versions: 1 2 3 4 5 6 7 8 9 10 11 12 13 14 15 16
312
FTUS44 KBRO 270115 AAA
TAFHRL
TAF AMD
KHRL 270115Z 2701/2724 12010KT P6SM SKC
     FM271500 17010KT P6SM SCT050
     FM271800 15010KT P6SM BKN250=

USA.gov is the U.S. government's official web portal to all federal, state and local government web resources and services.